Time;durP1;ratioP1;P1;durP2;ratioP2;P2;SDS_P1;SDS_P2;PMS_P1;PMS_P2;Temp;Humidity;BMP_temperature;BMP_pressure;BME280_temperature;BME280_humidity;BME280_pressure;Samples;Min_cycle;Max_cycle;Signal;HPM_P1;HPM_P2
2023/12/04 00:02:03;;;;;;;32.67;13.67;;;;;;;;;;5070784;28;20502;-86
2023/12/04 00:04:29;;;;;;;31.87;13.97;;;;;;;;;;5072515;28;20629;-86
2023/12/04 00:06:54;;;;;;;35.03;15.10;;;;;;;;;;5089617;28;20522;-86
2023/12/04 00:09:19;;;;;;;36.97;14.67;;;;;;;;;;5090232;28;21919;-86
2023/12/04 00:11:44;;;;;;;28.27;12.13;;;;;;;;;;5072196;28;20498;-86
2023/12/04 00:14:10;;;;;;;31.73;12.80;;;;;;;;;;5090048;28;20103;-86
2023/12/04 00:16:35;;;;;;;30.00;12.93;;;;;;;;;;5090099;28;20028;-86
2023/12/04 00:19:00;;;;;;;31.63;12.83;;;;;;;;;;5089277;28;20035;-87
2023/12/04 00:21:25;;;;;;;35.10;13.53;;;;;;;;;;5089478;28;20027;-86
2023/12/04 00:23:51;;;;;;;28.93;12.63;;;;;;;;;;5089612;28;20023;-86
2023/12/04 00:26:16;;;;;;;32.43;13.60;;;;;;;;;;5090054;28;20060;-87
2023/12/04 00:28:41;;;;;;;30.73;12.93;;;;;;;;;;5089150;28;20020;-87
2023/12/04 00:31:06;;;;;;;27.47;11.43;;;;;;;;;;5089013;28;20347;-88
2023/12/04 00:33:32;;;;;;;30.97;11.97;;;;;;;;;;5070479;28;20027;-87
2023/12/04 00:35:57;;;;;;;31.03;13.63;;;;;;;;;;5088294;28;20081;-87
2023/12/04 00:38:22;;;;;;;31.00;12.93;;;;;;;;;;5088996;28;20024;-87
2023/12/04 00:40:47;;;;;;;31.60;12.50;;;;;;;;;;5086887;28;20042;-87
2023/12/04 00:43:12;;;;;;;29.60;12.53;;;;;;;;;;5089827;28;20586;-87
2023/12/04 00:45:38;;;;;;;28.03;10.80;;;;;;;;;;5087311;28;20119;-86
2023/12/04 00:48:03;;;;;;;28.83;11.13;;;;;;;;;;5089296;28;20023;-87
2023/12/04 00:50:29;;;;;;;27.73;12.55;;;;;;;;;;5069119;28;20463;-87
2023/12/04 00:52:54;;;;;;;31.17;13.10;;;;;;;;;;5089541;28;20031;-88
2023/12/04 00:55:19;;;;;;;29.63;13.93;;;;;;;;;;5087981;28;20625;-88
2023/12/04 00:57:45;;;;;;;30.57;13.17;;;;;;;;;;5088925;28;20016;-89
2023/12/04 01:00:10;;;;;;;28.27;12.63;;;;;;;;;;5070234;28;20483;-88
2023/12/04 01:02:35;;;;;;;31.00;11.98;;;;;;;;;;5088474;28;20498;-88
2023/12/04 01:05:00;;;;;;;25.70;11.43;;;;;;;;;;5087045;28;20422;-88
2023/12/04 01:07:26;;;;;;;28.93;11.63;;;;;;;;;;5088436;28;20502;-88
2023/12/04 01:09:52;;;;;;;29.10;12.37;;;;;;;;;;5090170;28;20024;-88
2023/12/04 01:12:17;;;;;;;30.73;12.53;;;;;;;;;;5088856;28;20024;-88
2023/12/04 01:14:42;;;;;;;23.83;10.20;;;;;;;;;;5088381;28;20032;-87
2023/12/04 01:17:08;;;;;;;28.60;12.47;;;;;;;;;;5088327;28;20111;-87
2023/12/04 01:19:33;;;;;;;29.70;12.77;;;;;;;;;;5089141;28;20027;-88
2023/12/04 01:21:58;;;;;;;30.03;12.70;;;;;;;;;;5088724;28;20493;-88
2023/12/04 01:24:23;;;;;;;30.73;13.30;;;;;;;;;;5069129;28;20020;-87
2023/12/04 01:26:49;;;;;;;27.47;11.47;;;;;;;;;;5089480;28;20510;-88
2023/12/04 01:29:14;;;;;;;29.63;11.27;;;;;;;;;;5070981;28;20036;-88
2023/12/04 01:31:39;;;;;;;27.97;11.60;;;;;;;;;;5088817;28;20036;-88
2023/12/04 01:34:04;;;;;;;29.43;13.30;;;;;;;;;;5088247;28;20078;-88
2023/12/04 01:36:29;;;;;;;31.30;15.17;;;;;;;;;;5086123;28;20027;-88
2023/12/04 01:38:55;;;;;;;31.57;12.20;;;;;;;;;;5085533;28;20043;-88
2023/12/04 01:41:20;;;;;;;25.33;11.70;;;;;;;;;;5089757;28;20274;-88
2023/12/04 01:43:46;;;;;;;25.53;11.17;;;;;;;;;;5075845;28;20008;-88
2023/12/04 01:46:11;;;;;;;31.20;11.80;;;;;;;;;;5093082;28;20433;-87
2023/12/04 01:48:37;;;;;;;27.08;11.18;;;;;;;;;;5093732;28;20012;-87
2023/12/04 01:51:05;;;;;;;25.57;10.67;;;;;;;;;;5092365;28;20161;-88
2023/12/04 01:53:30;;;;;;;27.65;11.13;;;;;;;;;;5093154;28;20112;-88
2023/12/04 01:55:55;;;;;;;29.43;11.93;;;;;;;;;;5093238;28;20107;-88
2023/12/04 01:58:21;;;;;;;24.53;10.67;;;;;;;;;;5095083;28;20024;-88
2023/12/04 02:00:46;;;;;;;27.10;9.93;;;;;;;;;;5076277;28;20115;-88
2023/12/04 02:03:11;;;;;;;26.07;11.07;;;;;;;;;;5092813;28;20040;-88
2023/12/04 02:05:36;;;;;;;27.27;9.73;;;;;;;;;;5092106;28;20491;-88
2023/12/04 02:08:02;;;;;;;27.60;11.20;;;;;;;;;;5091726;28;20066;-88
2023/12/04 02:10:27;;;;;;;23.30;9.55;;;;;;;;;;5069740;28;20028;-88
2023/12/04 02:12:52;;;;;;;22.20;9.50;;;;;;;;;;5077023;28;20034;-88
2023/12/04 02:15:18;;;;;;;21.97;9.73;;;;;;;;;;5089996;28;20061;-88
2023/12/04 02:17:44;;;;;;;22.67;10.17;;;;;;;;;;5094006;28;20020;-88
2023/12/04 02:20:09;;;;;;;24.25;10.05;;;;;;;;;;5058640;28;20031;-88
2023/12/04 02:22:35;;;;;;;24.93;10.27;;;;;;;;;;5077610;28;20027;-88
2023/12/04 02:25:00;;;;;;;22.73;10.13;;;;;;;;;;5076717;28;20020;-88
2023/12/04 02:27:32;;;;;;;23.90;10.97;;;;;;;;;;5094489;28;20012;-88
2023/12/04 02:30:01;;;;;;;22.27;10.32;;;;;;;;;;5074038;28;20126;-88
2023/12/04 02:32:28;;;;;;;21.80;9.45;;;;;;;;;;5074473;28;20027;-89
2023/12/04 02:34:54;;;;;;;21.77;9.55;;;;;;;;;;5091357;28;20024;-89
2023/12/04 02:37:20;;;;;;;22.88;9.55;;;;;;;;;;5093519;28;20086;-88
2023/12/04 02:39:45;;;;;;;20.20;9.27;;;;;;;;;;5092012;28;20078;-88
2023/12/04 02:42:13;;;;;;;22.33;9.67;;;;;;;;;;5091962;28;20133;-88
2023/12/04 02:44:38;;;;;;;24.58;10.30;;;;;;;;;;5090379;28;20620;-87
2023/12/04 02:47:03;;;;;;;24.37;10.53;;;;;;;;;;5092632;28;20028;-88
2023/12/04 02:49:29;;;;;;;20.93;8.53;;;;;;;;;;5070053;28;20035;-88
2023/12/04 02:51:54;;;;;;;22.93;10.53;;;;;;;;;;5091018;28;20054;-88
2023/12/04 02:54:19;;;;;;;24.50;9.90;;;;;;;;;;5092422;28;20467;-88
2023/12/04 02:56:44;;;;;;;19.47;9.20;;;;;;;;;;5092534;28;20111;-88
2023/12/04 02:59:09;;;;;;;27.30;10.90;;;;;;;;;;5093097;28;20089;-88
2023/12/04 03:01:35;;;;;;;20.40;9.80;;;;;;;;;;5091493;28;20038;-88
2023/12/04 03:04:00;;;;;;;24.13;9.93;;;;;;;;;;5055663;28;20017;-87
2023/12/04 03:06:25;;;;;;;21.63;10.27;;;;;;;;;;5098143;28;20032;-88
2023/12/04 03:08:51;;;;;;;25.58;10.75;;;;;;;;;;5111845;28;20035;-88
2023/12/04 03:11:16;;;;;;;20.70;9.00;;;;;;;;;;5094190;28;20024;-88
2023/12/04 03:13:41;;;;;;;20.10;9.23;;;;;;;;;;5095135;28;20433;-88
2023/12/04 03:16:14;;;;;;;18.83;8.53;;;;;;;;;;5112802;28;20085;-88
2023/12/04 03:18:39;;;;;;;23.83;9.47;;;;;;;;;;5112274;28;20004;-88
2023/12/04 03:21:06;;;;;;;24.27;10.03;;;;;;;;;;5074207;28;20373;-89
2023/12/04 03:23:31;;;;;;;23.73;9.93;;;;;;;;;;5092205;28;20023;-88
2023/12/04 03:25:56;;;;;;;21.80;8.57;;;;;;;;;;5089974;28;20442;-88
2023/12/04 03:28:21;;;;;;;24.07;10.80;;;;;;;;;;5091595;28;20024;-89
2023/12/04 03:30:46;;;;;;;24.87;9.07;;;;;;;;;;5091752;28;20050;-88
2023/12/04 03:33:12;;;;;;;19.07;7.83;;;;;;;;;;5073749;28;20375;-88
2023/12/04 03:35:37;;;;;;;19.30;8.77;;;;;;;;;;5090182;28;20309;-88
2023/12/04 03:38:02;;;;;;;16.77;7.87;;;;;;;;;;5085053;28;20028;-89
2023/12/04 03:40:27;;;;;;;17.90;8.47;;;;;;;;;;5091536;28;20035;-89
2023/12/04 03:42:52;;;;;;;20.23;8.40;;;;;;;;;;5093446;28;20063;-88
2023/12/04 03:45:17;;;;;;;21.83;8.50;;;;;;;;;;5108235;28;20109;-88
2023/12/04 03:47:43;;;;;;;19.57;9.50;;;;;;;;;;5090374;28;20032;-88
2023/12/04 03:50:08;;;;;;;19.67;8.80;;;;;;;;;;5096909;28;20020;-88
2023/12/04 03:52:33;;;;;;;17.23;7.90;;;;;;;;;;5076903;28;20012;-88
2023/12/04 03:54:58;;;;;;;21.57;10.60;;;;;;;;;;5104517;28;20036;-87
2023/12/04 03:57:23;;;;;;;22.10;10.60;;;;;;;;;;5101585;28;20043;-88
2023/12/04 03:59:49;;;;;;;18.37;8.30;;;;;;;;;;5090644;28;20036;-88
2023/12/04 04:02:14;;;;;;;21.20;9.90;;;;;;;;;;5089180;28;20027;-89
2023/12/04 04:04:39;;;;;;;15.80;7.47;;;;;;;;;;5089642;28;20111;-89
2023/12/04 04:07:05;;;;;;;17.47;8.73;;;;;;;;;;5071824;28;20103;-89
2023/12/04 04:09:30;;;;;;;18.38;8.65;;;;;;;;;;5089576;28;20494;-88
2023/12/04 04:11:55;;;;;;;19.13;8.10;;;;;;;;;;5089790;28;20073;-89
2023/12/04 04:14:21;;;;;;;17.33;7.87;;;;;;;;;;5088809;28;20047;-88
2023/12/04 04:16:46;;;;;;;17.37;8.87;;;;;;;;;;5090640;28;20030;-88
2023/12/04 04:19:11;;;;;;;18.80;9.50;;;;;;;;;;5090175;28;20038;-88
2023/12/04 04:21:39;;;;;;;21.83;10.27;;;;;;;;;;5079641;28;20114;-88
2023/12/04 04:24:04;;;;;;;19.75;9.82;;;;;;;;;;5089139;28;20098;-89
2023/12/04 04:26:29;;;;;;;19.33;10.23;;;;;;;;;;5090928;28;20467;-88
2023/12/04 04:28:55;;;;;;;16.37;8.30;;;;;;;;;;5091784;28;20019;-89
2023/12/04 04:31:20;;;;;;;16.50;7.80;;;;;;;;;;5089193;28;20417;-89
2023/12/04 04:33:45;;;;;;;22.40;8.60;;;;;;;;;;5088548;28;20103;-88
2023/12/04 04:36:11;;;;;;;18.53;8.67;;;;;;;;;;5088360;28;20036;-87
2023/12/04 04:38:37;;;;;;;18.70;8.65;;;;;;;;;;5062079;28;20035;-87
2023/12/04 04:41:02;;;;;;;20.63;9.63;;;;;;;;;;5089564;28;20035;-88
2023/12/04 04:43:27;;;;;;;20.30;8.90;;;;;;;;;;5090047;28;20578;-88
2023/12/04 04:45:52;;;;;;;18.83;9.23;;;;;;;;;;5090466;28;20052;-87
2023/12/04 04:48:19;;;;;;;15.47;7.93;;;;;;;;;;5090125;28;20121;-88
2023/12/04 04:50:44;;;;;;;15.57;8.20;;;;;;;;;;5084462;28;20050;-88
2023/12/04 04:53:10;;;;;;;14.40;7.73;;;;;;;;;;5088930;28;20024;-88
2023/12/04 04:55:35;;;;;;;15.70;7.20;;;;;;;;;;5088393;28;20043;-87
2023/12/04 04:58:00;;;;;;;15.02;7.82;;;;;;;;;;5089369;28;20008;-88
2023/12/04 05:00:25;;;;;;;17.00;8.10;;;;;;;;;;5088591;28;20028;-87
2023/12/04 05:02:50;;;;;;;15.20;7.13;;;;;;;;;;5103602;28;20020;-87
2023/12/04 05:05:16;;;;;;;16.60;7.50;;;;;;;;;;5093246;28;20758;-87
2023/12/04 05:07:41;;;;;;;16.90;8.57;;;;;;;;;;5089147;28;20051;-88
2023/12/04 05:10:06;;;;;;;17.63;7.50;;;;;;;;;;5089153;28;20044;-87
2023/12/04 05:12:31;;;;;;;15.90;8.40;;;;;;;;;;5088892;28;20042;-87
2023/12/04 05:14:58;;;;;;;20.10;8.70;;;;;;;;;;5087824;28;20051;-91
2023/12/04 05:17:23;;;;;;;16.45;7.75;;;;;;;;;;5096416;28;20475;-90
2023/12/04 05:19:48;;;;;;;15.60;7.97;;;;;;;;;;5076365;28;20088;-88
2023/12/04 05:22:13;;;;;;;16.37;7.30;;;;;;;;;;5075896;28;20020;-88
2023/12/04 05:24:38;;;;;;;15.10;6.90;;;;;;;;;;5092623;28;20026;-89
2023/12/04 05:27:04;;;;;;;15.80;7.37;;;;;;;;;;5084988;28;20404;-89
2023/12/04 05:29:29;;;;;;;15.83;7.80;;;;;;;;;;5075272;28;20023;-88
2023/12/04 05:31:54;;;;;;;14.33;7.63;;;;;;;;;;5074265;28;20655;-88
2023/12/04 05:34:19;;;;;;;14.47;8.20;;;;;;;;;;5092782;28;20027;-89
2023/12/04 05:36:45;;;;;;;14.33;7.40;;;;;;;;;;5074638;28;20444;-88
2023/12/04 05:39:10;;;;;;;17.30;6.97;;;;;;;;;;5072515;28;20352;-89
2023/12/04 05:41:35;;;;;;;15.07;7.63;;;;;;;;;;5094669;28;20026;-90
2023/12/04 05:44:01;;;;;;;16.17;8.90;;;;;;;;;;5093771;28;20074;-88
2023/12/04 05:46:26;;;;;;;13.70;7.43;;;;;;;;;;5094143;28;20054;-88
2023/12/04 05:48:51;;;;;;;12.63;7.10;;;;;;;;;;5083381;28;20107;-89
2023/12/04 05:51:16;;;;;;;11.87;6.50;;;;;;;;;;5086418;28;20024;-89
2023/12/04 05:53:41;;;;;;;13.40;5.67;;;;;;;;;;5092676;28;20032;-88
2023/12/04 05:56:08;;;;;;;13.33;7.40;;;;;;;;;;5074181;28;20031;-90
2023/12/04 05:58:33;;;;;;;10.57;5.43;;;;;;;;;;5076726;28;20027;-92
2023/12/04 06:00:59;;;;;;;13.20;7.10;;;;;;;;;;5092107;28;20503;-89
2023/12/04 06:03:24;;;;;;;11.97;6.43;;;;;;;;;;5085600;28;20015;-89
2023/12/04 06:05:49;;;;;;;11.97;6.03;;;;;;;;;;5072195;28;20517;-90
2023/12/04 06:08:14;;;;;;;11.70;6.67;;;;;;;;;;5089077;28;20020;-95
2023/12/04 06:10:39;;;;;;;13.07;5.70;;;;;;;;;;5092654;28;20024;-94
2023/12/04 06:13:05;;;;;;;10.23;5.77;;;;;;;;;;5094050;28;20048;-95
2023/12/04 06:15:30;;;;;;;11.37;5.90;;;;;;;;;;5094556;28;20024;-89
2023/12/04 06:17:55;;;;;;;11.27;7.27;;;;;;;;;;5084058;28;20026;-93
2023/12/04 06:20:20;;;;;;;12.07;6.47;;;;;;;;;;5095869;28;20507;-90
2023/12/04 06:22:46;;;;;;;11.60;5.83;;;;;;;;;;5087218;28;20101;-91
2023/12/04 06:25:11;;;;;;;15.40;8.50;;;;;;;;;;5090292;28;20024;-90
2023/12/04 06:27:38;;;;;;;15.60;8.77;;;;;;;;;;5092848;28;20254;-92
2023/12/04 06:30:04;;;;;;;14.15;7.30;;;;;;;;;;5098951;28;20115;-91
2023/12/04 06:32:29;;;;;;;11.67;6.77;;;;;;;;;;5094041;28;20180;-91
2023/12/04 06:34:55;;;;;;;11.30;6.80;;;;;;;;;;5092564;28;20553;-91
2023/12/04 06:37:20;;;;;;;11.05;5.60;;;;;;;;;;5092752;28;20016;-91
2023/12/04 06:39:46;;;;;;;9.63;6.80;;;;;;;;;;5092475;28;20468;-90
2023/12/04 06:42:12;;;;;;;11.70;5.43;;;;;;;;;;5090154;28;20480;-90
2023/12/04 06:44:37;;;;;;;9.43;5.17;;;;;;;;;;5094526;28;20028;-90
2023/12/04 06:47:03;;;;;;;10.23;6.17;;;;;;;;;;5069511;28;20023;-91
2023/12/04 06:49:30;;;;;;;9.38;5.68;;;;;;;;;;5083059;28;20107;-91
2023/12/04 06:51:55;;;;;;;10.73;5.30;;;;;;;;;;5074668;28;20016;-90
2023/12/04 06:54:20;;;;;;;9.37;5.10;;;;;;;;;;5091494;28;20020;-90
2023/12/04 06:56:45;;;;;;;8.17;5.20;;;;;;;;;;5092256;28;20032;-91
2023/12/04 06:59:11;;;;;;;10.77;6.53;;;;;;;;;;5092868;28;20028;-90
2023/12/04 07:01:36;;;;;;;10.40;6.07;;;;;;;;;;5092476;28;20483;-90
2023/12/04 07:04:01;;;;;;;12.27;5.30;;;;;;;;;;5092243;28;20064;-90
2023/12/04 07:06:26;;;;;;;10.27;5.90;;;;;;;;;;5092448;28;20032;-90
2023/12/04 07:08:51;;;;;;;7.90;4.83;;;;;;;;;;5074279;28;20475;-90
2023/12/04 07:11:18;;;;;;;10.33;5.90;;;;;;;;;;5073509;28;20050;-90
2023/12/04 07:13:44;;;;;;;8.77;4.72;;;;;;;;;;5088778;28;20538;-92
2023/12/04 07:16:10;;;;;;;9.25;5.55;;;;;;;;;;5072912;28;20028;-91
2023/12/04 07:18:35;;;;;;;8.67;5.20;;;;;;;;;;5074292;28;20070;-91
2023/12/04 07:21:00;;;;;;;9.67;5.20;;;;;;;;;;5091712;28;20386;-89
2023/12/04 07:23:25;;;;;;;11.17;5.57;;;;;;;;;;5091974;28;20061;-92
2023/12/04 07:25:52;;;;;;;9.33;5.87;;;;;;;;;;5091766;28;20040;-90
2023/12/04 07:28:17;;;;;;;8.88;5.20;;;;;;;;;;5077889;28;20012;-92
2023/12/04 07:30:42;;;;;;;11.03;6.57;;;;;;;;;;5092837;28;20022;-89
2023/12/04 07:33:08;;;;;;;8.40;4.83;;;;;;;;;;5072543;28;20439;-86
2023/12/04 07:35:33;;;;;;;8.57;4.73;;;;;;;;;;5075716;28;20039;-92
2023/12/04 07:37:59;;;;;;;8.03;5.00;;;;;;;;;;5078914;28;20051;-92
2023/12/04 07:40:24;;;;;;;8.93;4.87;;;;;;;;;;5074728;28;20082;-91
2023/12/04 07:42:49;;;;;;;7.00;4.33;;;;;;;;;;5093736;28;20040;-89
2023/12/04 07:45:15;;;;;;;9.03;5.50;;;;;;;;;;5087740;22;20845;-89
2023/12/04 07:54:07;;;;;;;5.47;3.77;;;;;;;;;;5039240;28;20385;-89
2023/12/04 08:15:52;;;;;;;7.05;4.18;;;;;;;;;;5361573;22;20052;-89
2023/12/04 08:18:17;;;;;;;8.33;4.40;;;;;;;;;;5087736;28;20025;-91
2023/12/04 08:20:42;;;;;;;6.53;4.20;;;;;;;;;;5055136;28;20041;-92
2023/12/04 08:23:08;;;;;;;8.10;4.47;;;;;;;;;;5072908;28;20455;-91
2023/12/04 08:25:36;;;;;;;8.32;4.70;;;;;;;;;;5044672;28;20032;-89
2023/12/04 08:28:02;;;;;;;9.40;4.70;;;;;;;;;;5050289;28;20430;-92
2023/12/04 08:30:27;;;;;;;10.20;4.60;;;;;;;;;;5058236;28;20279;-90
2023/12/04 08:32:55;;;;;;;7.60;4.17;;;;;;;;;;5039803;28;20020;-90
2023/12/04 08:35:21;;;;;;;7.07;4.70;;;;;;;;;;5070946;28;20046;-92
2023/12/04 08:37:47;;;;;;;7.25;4.10;;;;;;;;;;5039633;28;20017;-91
2023/12/04 08:40:12;;;;;;;13.57;7.47;;;;;;;;;;5053738;28;20041;-90
2023/12/04 08:42:57;;;;;;;16.80;7.85;;;;;;;;;;5070357;22;20028;-92
2023/12/04 08:45:25;;;;;;;32.53;13.83;;;;;;;;;;5449029;22;20007;-88
2023/12/04 08:48:00;;;;;;;7.38;4.63;;;;;;;;;;5098814;28;20028;-89
2023/12/04 08:50:25;;;;;;;8.43;5.32;;;;;;;;;;5106050;28;20030;-89
2023/12/04 08:52:50;;;;;;;7.17;4.10;;;;;;;;;;5100283;28;20012;-90
2023/12/04 08:55:28;;;;;;;7.73;5.33;;;;;;;;;;5116733;22;20048;-89
2023/12/04 09:06:42;;;;;;;7.53;4.67;;;;;;;;;;5176006;22;20449;-90
2023/12/04 09:09:08;;;;;;;8.45;4.32;;;;;;;;;;5081656;28;20035;-89
2023/12/04 10:09:57;;;;;;;8.68;5.60;;;;;;;;;;5083175;28;20154;-91
2023/12/04 10:12:31;;;;;;;8.20;5.35;;;;;;;;;;5076143;28;20154;-90
2023/12/04 10:15:14;;;;;;;7.90;5.20;;;;;;;;;;5070590;28;20021;-90
2023/12/04 10:17:41;;;;;;;8.40;4.90;;;;;;;;;;5059364;28;20021;-90
2023/12/04 10:20:11;;;;;;;11.57;5.50;;;;;;;;;;5057764;28;20024;-88
2023/12/04 10:22:58;;;;;;;9.27;5.60;;;;;;;;;;5060279;28;20031;-90
2023/12/04 10:25:30;;;;;;;9.25;5.60;;;;;;;;;;5242961;22;20041;-92
2023/12/04 10:28:09;;;;;;;9.87;5.87;;;;;;;;;;5051363;28;20017;-90
2023/12/04 10:30:34;;;;;;;9.40;5.78;;;;;;;;;;5055311;28;20020;-88
2023/12/04 10:33:04;;;;;;;11.20;6.50;;;;;;;;;;5059291;28;20719;-89
2023/12/04 10:35:31;;;;;;;10.18;6.15;;;;;;;;;;5049167;28;20029;-89
2023/12/04 10:37:56;;;;;;;12.75;6.38;;;;;;;;;;5038661;28;20141;-90
2023/12/04 10:40:25;;;;;;;10.20;6.43;;;;;;;;;;5039453;28;20057;-91
2023/12/04 10:42:51;;;;;;;9.55;6.20;;;;;;;;;;5041063;28;20076;-89
2023/12/04 10:45:22;;;;;;;11.30;6.13;;;;;;;;;;5064109;22;20059;-87
2023/12/04 10:47:47;;;;;;;10.23;5.82;;;;;;;;;;5038567;28;20029;-88
2023/12/04 10:50:23;;;;;;;10.43;5.83;;;;;;;;;;5047071;28;20128;-89
2023/12/04 10:52:58;;;;;;;14.20;6.75;;;;;;;;;;5045075;28;20586;-87
2023/12/04 10:55:24;;;;;;;12.10;7.32;;;;;;;;;;5041770;28;20057;-88
2023/12/04 11:01:15;;;;;;;12.90;7.35;;;;;;;;;;5071905;22;20075;-87
2023/12/04 11:03:44;;;;;;;10.60;5.90;;;;;;;;;;5046329;28;20086;-92
2023/12/04 11:06:11;;;;;;;12.48;6.80;;;;;;;;;;5056990;28;20631;-90
2023/12/04 11:08:43;;;;;;;10.02;6.40;;;;;;;;;;5048810;28;20040;-92
2023/12/04 11:14:22;;;;;;;8.57;5.82;;;;;;;;;;5050843;28;20388;-90
2023/12/04 11:16:57;;;;;;;10.67;6.23;;;;;;;;;;5051217;28;20380;-90
2023/12/04 11:19:29;;;;;;;11.23;6.82;;;;;;;;;;5050070;28;20033;-92
2023/12/04 11:21:57;;;;;;;12.40;6.47;;;;;;;;;;5052241;28;20040;-90
2023/12/04 11:24:23;;;;;;;10.77;6.30;;;;;;;;;;5042028;28;20021;-90
2023/12/04 11:26:49;;;;;;;9.77;6.43;;;;;;;;;;5054928;28;20040;-90
2023/12/04 11:29:15;;;;;;;11.57;6.47;;;;;;;;;;5031019;28;20040;-90
2023/12/04 11:31:40;;;;;;;10.85;7.40;;;;;;;;;;5055270;28;20446;-90
2023/12/04 11:36:41;;;;;;;9.23;5.80;;;;;;;;;;5173799;22;20061;-90
2023/12/04 11:39:12;;;;;;;11.83;6.60;;;;;;;;;;5059370;28;20267;-91
2023/12/04 11:41:54;;;;;;;10.98;6.78;;;;;;;;;;5032477;28;20041;-91
2023/12/04 11:44:20;;;;;;;10.77;6.20;;;;;;;;;;5061335;22;20087;-90
2023/12/04 11:49:48;;;;;;;11.43;6.55;;;;;;;;;;5043046;28;20055;-90
2023/12/04 11:52:13;;;;;;;9.73;5.60;;;;;;;;;;5029611;28;20017;-90
2023/12/04 11:55:00;;;;;;;13.53;6.40;;;;;;;;;;5050220;28;20062;-90
2023/12/04 11:57:26;;;;;;;10.93;6.40;;;;;;;;;;5040836;28;20052;-90
2023/12/04 11:59:51;;;;;;;10.00;6.30;;;;;;;;;;5050763;28;20063;-89
2023/12/04 12:02:17;;;;;;;10.20;5.83;;;;;;;;;;5066235;22;20376;-90
2023/12/04 12:04:42;;;;;;;9.93;5.63;;;;;;;;;;5059425;28;20025;-90
2023/12/04 12:07:07;;;;;;;13.65;6.57;;;;;;;;;;5051660;28;20033;-89
2023/12/04 12:09:33;;;;;;;12.17;6.50;;;;;;;;;;5032922;28;20048;-90
2023/12/04 12:12:02;;;;;;;10.77;5.73;;;;;;;;;;5052528;28;20017;-90
2023/12/04 12:14:28;;;;;;;10.27;6.05;;;;;;;;;;5057681;28;20048;-90
2023/12/04 12:16:55;;;;;;;10.68;5.90;;;;;;;;;;5041706;28;20029;-91
2023/12/04 12:19:21;;;;;;;11.85;6.38;;;;;;;;;;5034098;28;20057;-91
2023/12/04 12:21:49;;;;;;;9.77;5.97;;;;;;;;;;5049199;28;20024;-90
2023/12/04 12:24:14;;;;;;;13.23;6.27;;;;;;;;;;5034691;28;20608;-89
2023/12/04 12:26:39;;;;;;;9.27;5.60;;;;;;;;;;5052031;28;20039;-90
2023/12/04 12:29:04;;;;;;;10.13;5.77;;;;;;;;;;5062439;28;20017;-91
2023/12/04 12:31:29;;;;;;;10.20;6.17;;;;;;;;;;5046823;28;20025;-90
2023/12/04 12:33:55;;;;;;;10.73;6.07;;;;;;;;;;5033574;28;20030;-89
2023/12/04 12:36:20;;;;;;;11.00;6.88;;;;;;;;;;5052579;28;20116;-91
2023/12/04 12:38:49;;;;;;;11.13;6.43;;;;;;;;;;5032610;28;20021;-90
2023/12/04 12:41:18;;;;;;;11.88;7.47;;;;;;;;;;5032373;28;20025;-90
2023/12/04 12:43:43;;;;;;;11.43;7.25;;;;;;;;;;5050733;28;20020;-90
2023/12/04 12:46:09;;;;;;;12.77;7.93;;;;;;;;;;5048918;28;20017;-90
2023/12/04 12:48:35;;;;;;;10.18;5.88;;;;;;;;;;5048685;28;20056;-90
2023/12/04 12:51:02;;;;;;;15.90;6.40;;;;;;;;;;5032824;28;20009;-90
2023/12/04 12:53:27;;;;;;;10.23;5.67;;;;;;;;;;5051119;28;20088;-90
2023/12/04 12:55:52;;;;;;;9.67;6.07;;;;;;;;;;5051142;28;20286;-89
2023/12/04 12:58:20;;;;;;;10.90;6.70;;;;;;;;;;5045864;28;20033;-89
2023/12/04 13:00:46;;;;;;;9.57;5.90;;;;;;;;;;5032511;28;20032;-89
2023/12/04 13:23:53;;;;;;;13.37;7.93;;;;;;;;;;5940095;22;20562;-89
2023/12/04 13:26:20;;;;;;;11.33;6.03;;;;;;;;;;5088615;28;20632;-89
2023/12/04 13:28:45;;;;;;;11.40;5.43;;;;;;;;;;5084392;28;20387;-88
2023/12/04 13:31:11;;;;;;;10.17;6.83;;;;;;;;;;5053906;28;20031;-89
2023/12/04 13:33:36;;;;;;;10.70;6.33;;;;;;;;;;5069482;28;20259;-88
2023/12/04 13:36:01;;;;;;;11.37;6.83;;;;;;;;;;5066104;28;20028;-89
2023/12/04 13:38:26;;;;;;;9.40;4.97;;;;;;;;;;5077076;28;20369;-88
2023/12/04 13:43:52;;;;;;;10.70;6.13;;;;;;;;;;5040925;28;20390;-88
2023/12/04 13:46:18;;;;;;;9.00;6.25;;;;;;;;;;5056339;28;20040;-90
2023/12/04 13:48:43;;;;;;;10.87;5.93;;;;;;;;;;5031036;28;20035;-89
2023/12/04 14:10:45;;;;;;;9.65;6.68;;;;;;;;;;5659200;22;20281;-92
2023/12/04 14:15:40;;;;;;;12.50;6.50;;;;;;;;;;5034969;28;20045;-90
2023/12/04 14:18:05;;;;;;;11.27;6.37;;;;;;;;;;5043442;28;20047;-95
2023/12/04 14:20:30;;;;;;;10.57;6.60;;;;;;;;;;5035817;28;20033;-93
2023/12/04 14:22:56;;;;;;;9.20;6.07;;;;;;;;;;5037559;28;20071;-93
2023/12/04 14:33:08;;;;;;;9.63;7.18;;;;;;;;;;5283754;22;20543;-93
2023/12/04 14:35:58;;;;;;;12.10;7.50;;;;;;;;;;5037041;28;20013;-94
2023/12/04 14:38:30;;;;;;;9.83;6.43;;;;;;;;;;5054744;28;20112;-95
2023/12/04 14:40:55;;;;;;;10.63;5.97;;;;;;;;;;5053909;28;20353;-94
2023/12/04 14:43:20;;;;;;;13.18;7.10;;;;;;;;;;5037502;28;20022;-94
2023/12/04 14:45:47;;;;;;;10.47;6.03;;;;;;;;;;5035677;28;20476;-94
2023/12/04 14:48:13;;;;;;;13.68;7.47;;;;;;;;;;5043235;28;20019;-94
2023/12/04 14:50:39;;;;;;;11.33;5.87;;;;;;;;;;5036226;28;20088;-94
2023/12/04 14:53:15;;;;;;;13.07;7.90;;;;;;;;;;5057416;28;20016;-95
2023/12/04 14:59:12;;;;;;;17.02;8.73;;;;;;;;;;5066676;28;20221;-94
2023/12/04 15:17:47;;;;;;;15.75;9.13;;;;;;;;;;5063903;28;20418;-95
2023/12/04 15:22:34;;;;;;;15.05;8.15;;;;;;;;;;5059165;28;20028;-94
2023/12/04 15:25:00;;;;;;;20.40;11.37;;;;;;;;;;5058600;28;20112;-94
2023/12/04 15:27:25;;;;;;;19.87;10.43;;;;;;;;;;5059308;28;20048;-94
2023/12/04 15:29:50;;;;;;;18.47;10.03;;;;;;;;;;5060551;28;20090;-94
2023/12/04 15:32:15;;;;;;;18.97;8.83;;;;;;;;;;5039615;28;20021;-93
2023/12/04 15:34:41;;;;;;;19.13;8.53;;;;;;;;;;5074411;28;20043;-93
2023/12/04 15:37:06;;;;;;;20.20;10.40;;;;;;;;;;5072630;28;20013;-94
2023/12/04 15:39:31;;;;;;;20.27;11.45;;;;;;;;;;5044311;28;20037;-93
2023/12/04 15:41:56;;;;;;;25.00;13.67;;;;;;;;;;5061914;28;20052;-93
2023/12/04 15:47:41;;;;;;;21.70;11.10;;;;;;;;;;5056918;28;20043;-93
2023/12/04 15:50:07;;;;;;;15.47;9.13;;;;;;;;;;5053796;28;20504;-92
2023/12/04 15:52:33;;;;;;;21.77;11.70;;;;;;;;;;5051700;28;20013;-91
2023/12/04 15:55:03;;;;;;;23.95;12.93;;;;;;;;;;5050188;28;20099;-91
2023/12/04 15:57:28;;;;;;;24.65;10.38;;;;;;;;;;5044148;28;20038;-91
2023/12/04 15:59:55;;;;;;;27.20;12.33;;;;;;;;;;5047445;28;20029;-91
2023/12/04 16:02:20;;;;;;;20.33;11.67;;;;;;;;;;5051426;28;20075;-91
2023/12/04 16:04:52;;;;;;;19.20;10.60;;;;;;;;;;5050948;28;20759;-91
2023/12/04 16:07:18;;;;;;;19.73;9.97;;;;;;;;;;5036680;28;20108;-91
2023/12/04 16:09:43;;;;;;;21.00;11.27;;;;;;;;;;5030952;28;20109;-90
2023/12/04 16:12:39;;;;;;;20.13;11.25;;;;;;;;;;5030021;28;20539;-91
2023/12/04 16:26:51;;;;;;;18.88;11.07;;;;;;;;;;5551828;22;20083;-87
2023/12/04 16:29:25;;;;;;;19.27;10.73;;;;;;;;;;5050000;28;20091;-88
2023/12/04 16:32:02;;;;;;;21.63;10.23;;;;;;;;;;5049322;28;20031;-87
2023/12/04 16:34:27;;;;;;;21.35;12.27;;;;;;;;;;5031513;28;20514;-88
2023/12/04 16:37:30;;;;;;;18.23;11.17;;;;;;;;;;5051625;28;20104;-95
2023/12/04 16:39:57;;;;;;;17.55;8.48;;;;;;;;;;5031651;28;20040;-93
2023/12/04 16:42:24;;;;;;;20.08;10.75;;;;;;;;;;5035617;28;20093;-94
2023/12/04 16:47:52;;;;;;;19.27;10.05;;;;;;;;;;5073266;22;20048;-93
2023/12/04 16:50:45;;;;;;;19.00;10.53;;;;;;;;;;5052521;28;20025;-94
2023/12/04 16:53:14;;;;;;;23.27;13.23;;;;;;;;;;5052907;28;20087;-94
2023/12/04 16:55:49;;;;;;;19.33;10.70;;;;;;;;;;5034938;28;20275;-93
2023/12/04 16:58:17;;;;;;;23.73;12.25;;;;;;;;;;5052886;28;20075;-94
2023/12/04 17:01:19;;;;;;;21.95;12.93;;;;;;;;;;5052460;28;20028;-94
2023/12/04 17:06:32;;;;;;;28.67;15.73;;;;;;;;;;5055579;28;20053;-93
2023/12/04 17:08:57;;;;;;;29.30;16.87;;;;;;;;;;5056639;28;20029;-94
2023/12/04 17:11:22;;;;;;;24.33;12.75;;;;;;;;;;5038165;28;20128;-95
2023/12/04 17:14:03;;;;;;;24.90;12.90;;;;;;;;;;5039559;28;20014;-94
2023/12/04 17:16:29;;;;;;;15.85;9.10;;;;;;;;;;5016395;28;20026;-95
2023/12/04 17:25:09;;;;;;;24.00;11.68;;;;;;;;;;5262664;22;20055;-96
2023/12/04 17:27:35;;;;;;;23.80;12.48;;;;;;;;;;5097867;28;20016;-94
2023/12/04 17:30:00;;;;;;;23.30;12.53;;;;;;;;;;5059611;28;20468;-95
2023/12/04 17:32:25;;;;;;;24.83;12.70;;;;;;;;;;5076670;28;20111;-94
2023/12/04 17:34:50;;;;;;;22.63;12.00;;;;;;;;;;5070993;28;20024;-90
2023/12/04 17:37:16;;;;;;;24.20;12.63;;;;;;;;;;5073775;28;20023;-91
2023/12/04 17:39:44;;;;;;;22.37;12.17;;;;;;;;;;5073500;28;20024;-91
2023/12/04 17:42:09;;;;;;;29.13;14.60;;;;;;;;;;5072723;28;20283;-90
2023/12/04 17:44:37;;;;;;;23.87;13.37;;;;;;;;;;5053629;28;20051;-92
2023/12/04 17:47:02;;;;;;;26.73;12.40;;;;;;;;;;5054972;28;20290;-92
2023/12/04 17:49:27;;;;;;;27.87;13.97;;;;;;;;;;5072134;28;20024;-93
2023/12/04 17:51:53;;;;;;;29.23;15.13;;;;;;;;;;5076601;28;20039;-96
2023/12/04 17:54:19;;;;;;;22.33;12.33;;;;;;;;;;5069344;28;20282;-94